VIR317 VOBL-EGLL
Flight info
| Callsign | VIR317 |
|---|---|
| Flight time | N/A |
| Altitude | 36000 |
| Route | VAGPU8A VAGPU Q8 AGELA G208 BBB/N0508F350 G208 APANO/N0506F360 G208 KE B210 NH/N0503F370 G326 ZB/N0503F360 L750 RIKAD/N0496F380 L750 RANAH B449 DUKAN L850 BAKUV N701 LUSAL M11 REBLO UM11 CRM UL746 GOKPA/N0492F400 UL746 ODERO DCT OPT DCT IRLOX DCT EMPOS DCT FOGRE DCT TEKVI DCT BERVA DCT LIKSA DCT RAPET DCT MASEK DCT TORNU DCT BREDA DCT ABNED L980 LOGAN |
| Aircraft | B789/H-SDE1E2E3FGHIJ2J3J4J5M1RWXY/LB1D1 |
Departure
| Time | 2026-05-06 18:16 |
|---|---|
| Airport | Kempegowda International Airport Bengaluru (VOBL) |
Arrival
| Time | N/A |
|---|---|
| Airport | London Heathrow Airport (EGLL) |
| Time | Latitude | Longitude | Altitude | Speed | Heading |
|---|---|---|---|---|---|
| 2026-05-06 17:44 | 13.20175 | 77.70918 | 3018 ft | 0 kts | 180° |
| 2026-05-06 17:53 | 13.20183 | 77.70918 | 3016 ft | 3 kts | 180° |
| 2026-05-06 17:53 | 13.20203 | 77.70918 | 3016 ft | 3 kts | 180° |
| 2026-05-06 17:54 | 13.20224 | 77.70918 | 3024 ft | 3 kts | 180° |
| 2026-05-06 17:54 | 13.20244 | 77.70920 | 3022 ft | 3 kts | 199° |
| 2026-05-06 17:54 | 13.20260 | 77.70932 | 3019 ft | 3 kts | 238° |
| 2026-05-06 17:54 | 13.20263 | 77.70949 | 3023 ft | 3 kts | 296° |
| 2026-05-06 17:55 | 13.20260 | 77.70968 | 3022 ft | 3 kts | 266° |
| 2026-05-06 17:55 | 13.20261 | 77.70983 | 3025 ft | 0 kts | 270° |
| 2026-05-06 17:56 | 13.20175 | 77.70918 | 3017 ft | 0 kts | 180° |
| 2026-05-06 18:02 | 13.20189 | 77.70918 | 3016 ft | 3 kts | 180° |
| 2026-05-06 18:02 | 13.20208 | 77.70918 | 3016 ft | 3 kts | 180° |
| 2026-05-06 18:02 | 13.20229 | 77.70918 | 3021 ft | 3 kts | 180° |
| 2026-05-06 18:03 | 13.20249 | 77.70919 | 3022 ft | 3 kts | 191° |
| 2026-05-06 18:03 | 13.20264 | 77.70929 | 3022 ft | 2 kts | 260° |
| 2026-05-06 18:03 | 13.20262 | 77.70946 | 3028 ft | 3 kts | 272° |
| 2026-05-06 18:03 | 13.20262 | 77.70954 | 3022 ft | 0 kts | 271° |
| 2026-05-06 18:07 | 13.20263 | 77.70892 | 3016 ft | 13 kts | 271° |
| 2026-05-06 18:08 | 13.20264 | 77.70800 | 3016 ft | 12 kts | 271° |
| 2026-05-06 18:08 | 13.20265 | 77.70714 | 3016 ft | 12 kts | 271° |
| 2026-05-06 18:08 | 13.20265 | 77.70592 | 3016 ft | 19 kts | 270° |
| 2026-05-06 18:08 | 13.20269 | 77.70460 | 3016 ft | 15 kts | 276° |
| 2026-05-06 18:09 | 13.20322 | 77.70388 | 3016 ft | 11 kts | 352° |
| 2026-05-06 18:09 | 13.20450 | 77.70393 | 3017 ft | 29 kts | 0° |
| 2026-05-06 18:09 | 13.20533 | 77.70336 | 3017 ft | 11 kts | 277° |
| 2026-05-06 18:09 | 13.20535 | 77.70211 | 3017 ft | 32 kts | 269° |
| 2026-05-06 18:10 | 13.20536 | 77.69990 | 3017 ft | 30 kts | 272° |
| 2026-05-06 18:10 | 13.20537 | 77.69789 | 3017 ft | 26 kts | 270° |
| 2026-05-06 18:10 | 13.20539 | 77.69606 | 3016 ft | 25 kts | 270° |
| 2026-05-06 18:10 | 13.20539 | 77.69554 | 3016 ft | 0 kts | 269° |
| 2026-05-06 18:11 | 13.20540 | 77.69508 | 3016 ft | 22 kts | 271° |
| 2026-05-06 18:11 | 13.20542 | 77.69351 | 3016 ft | 21 kts | 270° |
| 2026-05-06 18:11 | 13.20544 | 77.69178 | 3016 ft | 24 kts | 269° |
| 2026-05-06 18:11 | 13.20543 | 77.69008 | 3016 ft | 23 kts | 270° |
| 2026-05-06 18:12 | 13.20547 | 77.68849 | 3016 ft | 22 kts | 270° |
| 2026-05-06 18:12 | 13.20548 | 77.68700 | 3017 ft | 20 kts | 270° |
| 2026-05-06 18:12 | 13.20581 | 77.68616 | 3017 ft | 9 kts | 345° |
| 2026-05-06 18:12 | 13.20602 | 77.68616 | 3017 ft | 0 kts | 359° |
| 2026-05-06 18:13 | 13.20608 | 77.68616 | 3017 ft | 8 kts | 0° |
| 2026-05-06 18:13 | 13.20681 | 77.68622 | 3017 ft | 10 kts | 19° |
| 2026-05-06 18:14 | 13.20719 | 77.68668 | 3016 ft | 7 kts | 77° |
| 2026-05-06 18:14 | 13.20719 | 77.68695 | 3016 ft | 0 kts | 92° |
| 2026-05-06 18:14 | 13.20719 | 77.68717 | 3016 ft | 7 kts | 91° |
| 2026-05-06 18:15 | 13.20718 | 77.68801 | 3016 ft | 16 kts | 90° |
| 2026-05-06 18:15 | 13.20718 | 77.69000 | 3016 ft | 54 kts | 90° |
| 2026-05-06 18:15 | 13.20712 | 77.69651 | 3017 ft | 126 kts | 91° |
| 2026-05-06 18:15 | 13.20699 | 77.70773 | 3020 ft | 187 kts | 91° |
| 2026-05-06 18:16 | 13.20683 | 77.72221 | 3368 ft | 216 kts | 92° |
| 2026-05-06 18:16 | 13.20654 | 77.73819 | 4297 ft | 218 kts | 92° |
| 2026-05-06 18:16 | 13.20651 | 77.75396 | 5275 ft | 226 kts | 91° |
| 2026-05-06 18:16 | 13.20694 | 77.77107 | 5568 ft | 255 kts | 81° |
| 2026-05-06 18:17 | 13.21626 | 77.78700 | 6074 ft | 268 kts | 39° |
| 2026-05-06 18:17 | 13.23260 | 77.79633 | 6837 ft | 277 kts | 13° |
| 2026-05-06 18:17 | 13.25188 | 77.79569 | 7563 ft | 284 kts | 344° |
| 2026-05-06 18:17 | 13.26985 | 77.78696 | 8251 ft | 289 kts | 333° |
| 2026-05-06 18:18 | 13.28746 | 77.77681 | 9069 ft | 289 kts | 333° |
| 2026-05-06 18:18 | 13.30523 | 77.76727 | 9869 ft | 290 kts | 335° |
| 2026-05-06 18:18 | 13.32357 | 77.75794 | 10300 ft | 305 kts | 335° |
| 2026-05-06 18:18 | 13.34329 | 77.74780 | 10342 ft | 331 kts | 334° |
| 2026-05-06 18:19 | 13.36478 | 77.73649 | 10404 ft | 356 kts | 334° |
| 2026-05-06 18:19 | 13.38741 | 77.72457 | 10472 ft | 377 kts | 334° |
| 2026-05-06 18:19 | 13.41092 | 77.71230 | 11092 ft | 378 kts | 334° |
| 2026-05-06 18:19 | 13.43448 | 77.69999 | 11686 ft | 381 kts | 334° |
| 2026-05-06 18:20 | 13.45815 | 77.68761 | 12289 ft | 384 kts | 334° |
| 2026-05-06 18:20 | 13.48210 | 77.67506 | 12891 ft | 387 kts | 334° |
| 2026-05-06 18:20 | 13.50614 | 77.66248 | 13475 ft | 390 kts | 333° |
| 2026-05-06 18:20 | 13.53042 | 77.64977 | 14018 ft | 392 kts | 333° |
| 2026-05-06 18:21 | 13.55490 | 77.63695 | 14531 ft | 396 kts | 333° |
| 2026-05-06 18:21 | 13.57954 | 77.62404 | 15018 ft | 399 kts | 333° |
| 2026-05-06 18:21 | 13.60432 | 77.61106 | 15519 ft | 402 kts | 333° |
| 2026-05-06 18:21 | 13.62945 | 77.59789 | 15974 ft | 406 kts | 332° |
| 2026-05-06 18:22 | 13.64618 | 77.58912 | 16290 ft | 409 kts | 332° |
| 2026-05-06 18:22 | 13.67163 | 77.57578 | 16729 ft | 413 kts | 332° |
| 2026-05-06 18:22 | 13.69739 | 77.56227 | 17162 ft | 416 kts | 332° |
| 2026-05-06 18:22 | 13.72321 | 77.54873 | 17584 ft | 420 kts | 332° |
| 2026-05-06 18:23 | 13.74947 | 77.53495 | 18008 ft | 423 kts | 332° |
| 2026-05-06 18:23 | 13.77586 | 77.52111 | 18372 ft | 427 kts | 332° |
| 2026-05-06 18:23 | 13.80225 | 77.50725 | 18737 ft | 429 kts | 332° |
| 2026-05-06 18:23 | 13.82878 | 77.49332 | 19089 ft | 431 kts | 332° |
| 2026-05-06 18:24 | 13.85563 | 77.47922 | 19441 ft | 433 kts | 332° |
| 2026-05-06 18:24 | 13.88275 | 77.46498 | 19783 ft | 436 kts | 332° |
| 2026-05-06 18:24 | 13.90984 | 77.45075 | 20100 ft | 438 kts | 332° |
| 2026-05-06 18:24 | 13.93709 | 77.43642 | 20427 ft | 440 kts | 332° |
| 2026-05-06 18:25 | 13.96448 | 77.42202 | 20756 ft | 442 kts | 332° |
| 2026-05-06 18:25 | 13.99196 | 77.40757 | 21067 ft | 444 kts | 332° |
| 2026-05-06 18:25 | 14.01956 | 77.39306 | 21372 ft | 446 kts | 332° |
| 2026-05-06 18:25 | 14.04733 | 77.37844 | 21672 ft | 448 kts | 332° |
| 2026-05-06 18:26 | 14.07517 | 77.36379 | 21959 ft | 450 kts | 332° |
| 2026-05-06 18:26 | 14.10309 | 77.34909 | 22247 ft | 452 kts | 332° |
| 2026-05-06 18:26 | 14.13115 | 77.33431 | 22527 ft | 453 kts | 332° |
| 2026-05-06 18:26 | 14.15927 | 77.31950 | 22805 ft | 455 kts | 332° |
| 2026-05-06 18:27 | 14.18753 | 77.30461 | 23067 ft | 457 kts | 332° |
| 2026-05-06 18:27 | 14.21556 | 77.28984 | 23311 ft | 458 kts | 332° |
| 2026-05-06 18:27 | 14.24401 | 77.27484 | 23539 ft | 460 kts | 332° |
| 2026-05-06 18:27 | 14.27253 | 77.25981 | 23747 ft | 462 kts | 332° |
| 2026-05-06 18:28 | 14.30125 | 77.24466 | 23944 ft | 463 kts | 332° |
| 2026-05-06 18:28 | 14.32997 | 77.22950 | 24150 ft | 464 kts | 332° |
| 2026-05-06 18:28 | 14.35878 | 77.21429 | 24333 ft | 466 kts | 332° |
| 2026-05-06 18:28 | 14.38767 | 77.19904 | 24518 ft | 467 kts | 332° |
| 2026-05-06 18:29 | 14.41666 | 77.18373 | 24715 ft | 469 kts | 332° |
| 2026-05-06 18:29 | 14.44576 | 77.16836 | 24890 ft | 470 kts | 332° |
| 2026-05-06 18:29 | 14.47487 | 77.15298 | 25067 ft | 471 kts | 332° |
| 2026-05-06 18:29 | 14.50413 | 77.13751 | 25238 ft | 473 kts | 332° |
| 2026-05-06 18:30 | 14.53348 | 77.12200 | 25426 ft | 474 kts | 332° |
| 2026-05-06 18:30 | 14.56283 | 77.10648 | 25610 ft | 475 kts | 332° |
| 2026-05-06 18:30 | 14.59241 | 77.09111 | 25774 ft | 477 kts | 335° |
| 2026-05-06 18:30 | 14.62372 | 77.07932 | 25922 ft | 479 kts | 339° |
| 2026-05-06 18:31 | 14.65520 | 77.06789 | 26119 ft | 480 kts | 339° |
| 2026-05-06 18:31 | 14.68668 | 77.05634 | 26297 ft | 481 kts | 339° |
| 2026-05-06 18:31 | 14.71836 | 77.04472 | 26481 ft | 483 kts | 339° |
| 2026-05-06 18:31 | 14.75011 | 77.03315 | 26664 ft | 484 kts | 339° |
| 2026-05-06 18:32 | 14.78187 | 77.02158 | 26836 ft | 486 kts | 339° |
| 2026-05-06 18:32 | 14.81383 | 77.00988 | 27018 ft | 487 kts | 339° |
| 2026-05-06 18:32 | 14.84577 | 76.99819 | 27201 ft | 488 kts | 339° |
| 2026-05-06 18:32 | 14.87788 | 76.98645 | 27382 ft | 489 kts | 339° |
| 2026-05-06 18:33 | 14.91002 | 76.97470 | 27578 ft | 491 kts | 339° |
| 2026-05-06 18:33 | 14.94189 | 76.96304 | 27741 ft | 492 kts | 339° |
| 2026-05-06 18:33 | 14.97462 | 76.95105 | 27933 ft | 494 kts | 339° |
| 2026-05-06 18:33 | 15.00704 | 76.93918 | 28113 ft | 495 kts | 339° |
| 2026-05-06 18:34 | 15.03913 | 76.92743 | 28281 ft | 497 kts | 339° |
| 2026-05-06 18:34 | 15.07218 | 76.91532 | 28458 ft | 498 kts | 339° |
| 2026-05-06 18:34 | 15.10491 | 76.90332 | 28648 ft | 500 kts | 339° |
| 2026-05-06 18:34 | 15.13717 | 76.89149 | 28817 ft | 501 kts | 339° |
| 2026-05-06 18:35 | 15.17018 | 76.87939 | 28992 ft | 503 kts | 339° |
| 2026-05-06 18:35 | 15.20325 | 76.86725 | 29169 ft | 504 kts | 339° |
| 2026-05-06 18:35 | 15.23642 | 76.85507 | 29353 ft | 506 kts | 339° |
| 2026-05-06 18:35 | 15.26966 | 76.84287 | 29534 ft | 507 kts | 339° |
| 2026-05-06 18:36 | 15.30296 | 76.83064 | 29727 ft | 509 kts | 339° |
| 2026-05-06 18:36 | 15.33636 | 76.81837 | 29898 ft | 510 kts | 339° |
| 2026-05-06 18:36 | 15.36993 | 76.80603 | 30056 ft | 512 kts | 339° |
| 2026-05-06 18:36 | 15.40364 | 76.79363 | 30211 ft | 513 kts | 339° |
| 2026-05-06 18:37 | 15.43733 | 76.78125 | 30379 ft | 514 kts | 339° |
| 2026-05-06 18:37 | 15.47105 | 76.76884 | 30614 ft | 514 kts | 339° |
| 2026-05-06 18:37 | 15.50480 | 76.75642 | 30845 ft | 514 kts | 339° |
| 2026-05-06 18:37 | 15.53842 | 76.74404 | 31093 ft | 514 kts | 339° |
| 2026-05-06 18:38 | 15.57207 | 76.73165 | 31362 ft | 513 kts | 339° |
| 2026-05-06 18:38 | 15.60568 | 76.71927 | 31641 ft | 512 kts | 339° |
| 2026-05-06 18:38 | 15.63925 | 76.70689 | 31892 ft | 512 kts | 338° |
| 2026-05-06 18:38 | 15.67149 | 76.69152 | 32163 ft | 508 kts | 327° |
| 2026-05-06 18:39 | 15.70029 | 76.67055 | 32431 ft | 505 kts | 317° |
| 2026-05-06 18:39 | 15.72495 | 76.64476 | 32703 ft | 503 kts | 307° |
| 2026-05-06 18:39 | 15.74669 | 76.61623 | 32928 ft | 503 kts | 307° |
| 2026-05-06 18:40 | 15.78944 | 76.55943 | 33535 ft | 502 kts | 307° |
| 2026-05-06 18:40 | 15.81084 | 76.53092 | 33830 ft | 501 kts | 307° |
| 2026-05-06 18:40 | 15.83235 | 76.50241 | 34092 ft | 501 kts | 307° |
| 2026-05-06 18:40 | 15.85377 | 76.47398 | 34349 ft | 500 kts | 307° |
| 2026-05-06 18:41 | 15.87522 | 76.44543 | 34613 ft | 499 kts | 306° |
| 2026-05-06 18:41 | 15.89653 | 76.41704 | 34858 ft | 499 kts | 307° |
| 2026-05-06 18:41 | 15.91790 | 76.38860 | 35129 ft | 498 kts | 307° |
| 2026-05-06 18:41 | 15.93922 | 76.36025 | 35382 ft | 498 kts | 307° |
| 2026-05-06 18:42 | 15.96053 | 76.33186 | 35634 ft | 498 kts | 306° |
| 2026-05-06 18:42 | 15.98180 | 76.30349 | 35837 ft | 498 kts | 306° |
| 2026-05-06 18:42 | 16.00320 | 76.27497 | 35834 ft | 501 kts | 306° |
| 2026-05-06 18:43 | 16.04588 | 76.21807 | 35827 ft | 496 kts | 306° |
| 2026-05-06 18:43 | 16.08830 | 76.16141 | 35824 ft | 495 kts | 306° |
| 2026-05-06 18:44 | 16.13027 | 76.10536 | 35820 ft | 494 kts | 306° |
| 2026-05-06 18:44 | 16.17250 | 76.04889 | 35822 ft | 494 kts | 306° |
| 2026-05-06 18:45 | 16.21469 | 75.99245 | 35820 ft | 494 kts | 306° |
| 2026-05-06 18:45 | 16.25687 | 75.93597 | 35826 ft | 494 kts | 306° |
| 2026-05-06 18:46 | 16.29908 | 75.87941 | 35824 ft | 494 kts | 306° |
| 2026-05-06 18:46 | 16.34128 | 75.82281 | 35820 ft | 495 kts | 306° |
| 2026-05-06 18:47 | 16.38345 | 75.76621 | 35820 ft | 494 kts | 307° |
| 2026-05-06 18:47 | 16.42553 | 75.70968 | 35819 ft | 495 kts | 306° |
| 2026-05-06 18:48 | 16.46763 | 75.65309 | 35817 ft | 496 kts | 306° |
| 2026-05-06 18:48 | 16.51005 | 75.59602 | 35823 ft | 496 kts | 307° |
| 2026-05-06 18:49 | 16.55210 | 75.53940 | 35820 ft | 495 kts | 306° |
| 2026-05-06 18:49 | 16.59422 | 75.48264 | 35826 ft | 495 kts | 306° |
| 2026-05-06 18:50 | 16.63981 | 75.43157 | 35825 ft | 496 kts | 314° |
| 2026-05-06 18:50 | 16.68835 | 75.38088 | 35832 ft | 496 kts | 314° |
| 2026-05-06 18:51 | 16.73730 | 75.33010 | 35825 ft | 495 kts | 314° |
| 2026-05-06 18:51 | 16.78577 | 75.27956 | 35828 ft | 495 kts | 314° |
| 2026-05-06 18:52 | 16.83472 | 75.22859 | 35829 ft | 495 kts | 314° |
| 2026-05-06 18:52 | 16.88352 | 75.17769 | 35828 ft | 494 kts | 314° |
| 2026-05-06 18:53 | 16.93219 | 75.12692 | 35823 ft | 495 kts | 314° |
| 2026-05-06 18:53 | 16.98095 | 75.07600 | 35826 ft | 496 kts | 314° |
| 2026-05-06 18:54 | 17.02975 | 75.02499 | 35829 ft | 496 kts | 314° |
| 2026-05-06 18:54 | 17.07812 | 74.97440 | 35827 ft | 495 kts | 314° |
| 2026-05-06 18:55 | 17.12666 | 74.92359 | 35826 ft | 494 kts | 314° |
| 2026-05-06 18:55 | 17.17522 | 74.87273 | 35826 ft | 494 kts | 314° |
| 2026-05-06 18:56 | 17.22382 | 74.82178 | 35825 ft | 494 kts | 314° |
| 2026-05-06 18:56 | 17.27303 | 74.77014 | 35821 ft | 493 kts | 314° |
| 2026-05-06 18:57 | 17.32147 | 74.71927 | 35830 ft | 494 kts | 314° |
| 2026-05-06 18:57 | 17.36980 | 74.66848 | 35838 ft | 495 kts | 314° |
| 2026-05-06 18:58 | 17.41839 | 74.61738 | 35827 ft | 495 kts | 314° |
| 2026-05-06 18:58 | 17.46706 | 74.56616 | 35844 ft | 495 kts | 314° |
| 2026-05-06 18:59 | 17.51548 | 74.51515 | 35838 ft | 496 kts | 314° |
| 2026-05-06 18:59 | 17.56412 | 74.46386 | 35840 ft | 495 kts | 314° |
| 2026-05-06 19:00 | 17.61265 | 74.41266 | 35839 ft | 494 kts | 314° |
| 2026-05-06 19:00 | 17.66111 | 74.36149 | 35848 ft | 495 kts | 314° |
| 2026-05-06 19:01 | 17.70926 | 74.31060 | 35858 ft | 495 kts | 314° |
| 2026-05-06 19:01 | 17.74995 | 74.26757 | 35854 ft | 495 kts | 314° |
| 2026-05-06 19:02 | 17.80629 | 74.20794 | 35853 ft | 494 kts | 314° |
| 2026-05-06 19:02 | 17.85460 | 74.15675 | 35856 ft | 493 kts | 314° |
| 2026-05-06 19:03 | 17.89507 | 74.11385 | 35855 ft | 493 kts | 314° |
| 2026-05-06 19:03 | 17.94339 | 74.06258 | 35860 ft | 494 kts | 314° |
| 2026-05-06 19:04 | 17.99150 | 74.01149 | 35861 ft | 495 kts | 314° |
| 2026-05-06 19:04 | 18.03984 | 73.96012 | 35868 ft | 494 kts | 314° |
| 2026-05-06 19:05 | 18.08909 | 73.90968 | 35864 ft | 494 kts | 315° |
| 2026-05-06 19:05 | 18.13819 | 73.85912 | 35866 ft | 493 kts | 314° |
| 2026-05-06 19:06 | 18.18710 | 73.80867 | 35860 ft | 492 kts | 315° |
| 2026-05-06 19:06 | 18.23607 | 73.75824 | 35860 ft | 492 kts | 314° |
| 2026-05-06 19:07 | 18.28496 | 73.70771 | 35864 ft | 492 kts | 314° |
| 2026-05-06 19:07 | 18.33380 | 73.65732 | 35860 ft | 492 kts | 314° |
| 2026-05-06 19:08 | 18.38234 | 73.60711 | 35858 ft | 492 kts | 314° |
| 2026-05-06 19:08 | 18.43113 | 73.55664 | 35860 ft | 491 kts | 314° |
| 2026-05-06 19:09 | 18.47983 | 73.50620 | 35852 ft | 491 kts | 314° |
| 2026-05-06 19:09 | 18.52847 | 73.45580 | 35852 ft | 491 kts | 314° |
| 2026-05-06 19:10 | 18.57718 | 73.40527 | 35853 ft | 492 kts | 314° |
| 2026-05-06 19:10 | 18.62564 | 73.35496 | 35845 ft | 491 kts | 314° |
| 2026-05-06 19:11 | 18.67432 | 73.30439 | 35832 ft | 490 kts | 314° |
| 2026-05-06 19:11 | 18.72266 | 73.25412 | 35829 ft | 491 kts | 314° |
| 2026-05-06 19:12 | 18.77127 | 73.20352 | 35825 ft | 492 kts | 314° |
| 2026-05-06 19:12 | 18.82013 | 73.15262 | 35818 ft | 492 kts | 314° |
| 2026-05-06 19:13 | 18.86886 | 73.10181 | 35816 ft | 491 kts | 314° |
| 2026-05-06 19:13 | 18.91742 | 73.05114 | 35811 ft | 490 kts | 314° |
| 2026-05-06 19:14 | 18.96602 | 73.00038 | 35810 ft | 491 kts | 314° |
| 2026-05-06 19:14 | 19.01465 | 72.94955 | 35811 ft | 492 kts | 314° |
| 2026-05-06 19:15 | 19.06789 | 72.90406 | 35825 ft | 495 kts | 331° |
| 2026-05-06 19:15 | 19.13311 | 72.88047 | 35837 ft | 500 kts | 351° |
| 2026-05-06 19:16 | 19.20207 | 72.87952 | 35814 ft | 503 kts | 0° |
| 2026-05-06 19:16 | 19.27175 | 72.88262 | 35804 ft | 501 kts | 0° |
| 2026-05-06 19:17 | 19.34145 | 72.88554 | 35809 ft | 499 kts | 0° |
| 2026-05-06 19:17 | 19.41086 | 72.88849 | 35808 ft | 500 kts | 0° |
| 2026-05-06 19:18 | 19.48038 | 72.89147 | 35813 ft | 499 kts | 0° |
| 2026-05-06 19:18 | 19.54973 | 72.89441 | 35816 ft | 498 kts | 0° |
| 2026-05-06 19:19 | 19.61857 | 72.89736 | 35816 ft | 499 kts | 360° |
| 2026-05-06 19:19 | 19.68809 | 72.90033 | 35820 ft | 499 kts | 360° |
| 2026-05-06 19:20 | 19.75748 | 72.90330 | 35822 ft | 499 kts | 360° |
| 2026-05-06 19:20 | 19.82699 | 72.90627 | 35825 ft | 500 kts | 360° |
| 2026-05-06 19:21 | 19.89650 | 72.90925 | 35824 ft | 500 kts | 360° |
| 2026-05-06 19:21 | 19.96599 | 72.91223 | 35828 ft | 500 kts | 359° |
| 2026-05-06 19:22 | 20.03556 | 72.91522 | 35830 ft | 500 kts | 359° |
| 2026-05-06 19:22 | 20.10508 | 72.91821 | 35832 ft | 500 kts | 359° |
| 2026-05-06 19:23 | 20.17453 | 72.92119 | 35826 ft | 499 kts | 359° |
| 2026-05-06 19:23 | 20.24389 | 72.92367 | 35822 ft | 495 kts | 353° |
| 2026-05-06 19:23 | 20.27772 | 72.91855 | 35805 ft | 489 kts | 341° |
| 2026-05-06 19:24 | 20.30960 | 72.90646 | 35445 ft | 486 kts | 330° |
| 2026-05-06 19:24 | 20.33818 | 72.88760 | 35068 ft | 483 kts | 318° |
| 2026-05-06 19:24 | 20.36250 | 72.86320 | 34717 ft | 481 kts | 310° |
| 2026-05-06 19:24 | 20.38317 | 72.83499 | 34361 ft | 481 kts | 301° |
| 2026-05-06 19:25 | 20.39928 | 72.80392 | 34010 ft | 480 kts | 292° |
| 2026-05-06 19:25 | 20.41053 | 72.77032 | 33631 ft | 481 kts | 283° |
| 2026-05-06 19:25 | 20.41646 | 72.73523 | 33231 ft | 482 kts | 275° |
| 2026-05-06 19:25 | 20.41684 | 72.69950 | 32843 ft | 484 kts | 266° |
| 2026-05-06 19:26 | 20.41158 | 72.66406 | 32427 ft | 487 kts | 257° |
| 2026-05-06 19:26 | 20.40066 | 72.62979 | 32010 ft | 491 kts | 247° |
| 2026-05-06 19:26 | 20.38420 | 72.59771 | 31559 ft | 496 kts | 238° |
| 2026-05-06 19:26 | 20.36256 | 72.56891 | 31118 ft | 501 kts | 228° |
| 2026-05-06 19:27 | 20.33621 | 72.54414 | 30648 ft | 506 kts | 221° |
| 2026-05-06 19:27 | 20.30841 | 72.52085 | 30134 ft | 510 kts | 221° |
| 2026-05-06 19:27 | 20.28054 | 72.49782 | 29939 ft | 505 kts | 221° |
| 2026-05-06 19:27 | 20.25281 | 72.47493 | 29585 ft | 504 kts | 221° |
| 2026-05-06 19:28 | 20.22526 | 72.45200 | 29278 ft | 501 kts | 221° |
| 2026-05-06 19:28 | 20.19787 | 72.42918 | 28970 ft | 499 kts | 221° |
| 2026-05-06 19:28 | 20.17057 | 72.40655 | 28665 ft | 497 kts | 221° |
| 2026-05-06 19:28 | 20.14327 | 72.38397 | 28360 ft | 494 kts | 221° |
| 2026-05-06 19:29 | 20.11628 | 72.36160 | 28071 ft | 492 kts | 221° |
| 2026-05-06 19:29 | 20.08922 | 72.33916 | 27770 ft | 490 kts | 221° |
| 2026-05-06 19:29 | 20.06230 | 72.31685 | 27496 ft | 488 kts | 221° |
| 2026-05-06 19:29 | 20.03563 | 72.29480 | 27227 ft | 486 kts | 221° |
| 2026-05-06 19:30 | 20.00893 | 72.27272 | 26950 ft | 485 kts | 221° |
| 2026-05-06 19:30 | 19.98698 | 72.25456 | 26728 ft | 483 kts | 221° |
| 2026-05-06 19:30 | 19.96032 | 72.23252 | 26467 ft | 481 kts | 221° |
| 2026-05-06 19:30 | 19.93357 | 72.21042 | 26204 ft | 480 kts | 221° |
| 2026-05-06 19:31 | 19.90763 | 72.18900 | 25954 ft | 478 kts | 221° |
| 2026-05-06 19:31 | 19.88093 | 72.16799 | 25678 ft | 479 kts | 215° |
| 2026-05-06 19:31 | 19.81913 | 72.14137 | 24785 ft | 486 kts | 195° |
| 2026-05-06 19:32 | 19.78515 | 72.13720 | 24049 ft | 492 kts | 184° |
| 2026-05-06 19:32 | 19.75092 | 72.13966 | 23294 ft | 498 kts | 173° |
| 2026-05-06 19:32 | 19.71715 | 72.14892 | 22513 ft | 501 kts | 162° |
| 2026-05-06 19:32 | 19.68540 | 72.16470 | 21755 ft | 502 kts | 150° |
| 2026-05-06 19:33 | 19.65716 | 72.18630 | 21011 ft | 500 kts | 140° |
| 2026-05-06 19:33 | 19.63157 | 72.21044 | 20277 ft | 497 kts | 139° |
| 2026-05-06 19:33 | 19.60588 | 72.23477 | 19543 ft | 493 kts | 139° |
| 2026-05-06 19:33 | 19.58046 | 72.25905 | 18816 ft | 489 kts | 139° |
| 2026-05-06 19:34 | 19.55515 | 72.28310 | 18096 ft | 485 kts | 139° |
| 2026-05-06 19:34 | 19.53009 | 72.30677 | 17341 ft | 479 kts | 139° |
| 2026-05-06 19:34 | 19.50581 | 72.32974 | 16665 ft | 472 kts | 139° |
| 2026-05-06 19:34 | 19.48137 | 72.35293 | 15954 ft | 465 kts | 139° |
| 2026-05-06 19:35 | 19.45753 | 72.37552 | 15474 ft | 453 kts | 139° |
| 2026-05-06 19:35 | 19.43425 | 72.39754 | 14826 ft | 446 kts | 139° |
| 2026-05-06 19:35 | 19.41130 | 72.41922 | 14183 ft | 439 kts | 139° |
| 2026-05-06 19:35 | 19.38868 | 72.44061 | 13702 ft | 428 kts | 139° |
| 2026-05-06 19:36 | 19.36694 | 72.46119 | 13502 ft | 410 kts | 139° |
| 2026-05-06 19:36 | 19.34610 | 72.48088 | 13350 ft | 392 kts | 139° |
| 2026-05-06 19:36 | 19.32616 | 72.49971 | 13194 ft | 375 kts | 139° |
| 2026-05-06 19:36 | 19.30707 | 72.51773 | 13048 ft | 360 kts | 139° |
| 2026-05-06 19:37 | 19.28875 | 72.53502 | 12907 ft | 345 kts | 139° |
| 2026-05-06 19:37 | 19.27129 | 72.55150 | 12771 ft | 331 kts | 139° |
| 2026-05-06 19:37 | 19.25438 | 72.56745 | 12609 ft | 318 kts | 139° |
| 2026-05-06 19:37 | 19.24353 | 72.57768 | 12428 ft | 313 kts | 139° |
| 2026-05-06 19:38 | 19.22391 | 72.59950 | 12084 ft | 301 kts | 120° |
| 2026-05-06 19:38 | 19.21670 | 72.61977 | 11972 ft | 290 kts | 99° |
| 2026-05-06 19:38 | 19.21568 | 72.64061 | 11942 ft | 280 kts | 92° |
| 2026-05-06 19:38 | 19.21545 | 72.66083 | 11913 ft | 278 kts | 91° |
| 2026-05-06 19:39 | 19.21543 | 72.68126 | 11891 ft | 277 kts | 91° |
| 2026-05-06 19:39 | 19.21535 | 72.70169 | 11875 ft | 278 kts | 92° |
| 2026-05-06 19:39 | 19.21521 | 72.72214 | 11867 ft | 278 kts | 92° |
| 2026-05-06 19:39 | 19.21507 | 72.74259 | 11860 ft | 278 kts | 91° |
| 2026-05-06 19:40 | 19.21495 | 72.76305 | 11844 ft | 278 kts | 91° |
| 2026-05-06 19:40 | 19.21483 | 72.78339 | 11843 ft | 278 kts | 91° |
| 2026-05-06 19:40 | 19.21470 | 72.80396 | 11843 ft | 278 kts | 91° |
| 2026-05-06 19:40 | 19.21456 | 72.82437 | 11851 ft | 278 kts | 91° |
| 2026-05-06 19:41 | 19.21447 | 72.83798 | 11842 ft | 278 kts | 91° |
| 2026-05-06 19:41 | 19.21429 | 72.86540 | 11741 ft | 282 kts | 91° |
| 2026-05-06 19:41 | 19.21419 | 72.87940 | 11352 ft | 289 kts | 91° |
| 2026-05-06 19:41 | 19.21399 | 72.90795 | 10610 ft | 297 kts | 91° |
| 2026-05-06 19:42 | 19.21389 | 72.92283 | 10229 ft | 301 kts | 91° |
| 2026-05-06 19:42 | 19.21373 | 72.94521 | 9666 ft | 306 kts | 91° |
| 2026-05-06 19:42 | 19.21356 | 72.96781 | 9030 ft | 310 kts | 91° |
| 2026-05-06 19:42 | 19.21339 | 72.99078 | 8405 ft | 314 kts | 91° |
| 2026-05-06 19:43 | 19.21322 | 73.01383 | 8013 ft | 309 kts | 91° |
| 2026-05-06 19:43 | 19.21306 | 73.03598 | 8005 ft | 292 kts | 91° |
| 2026-05-06 19:43 | 19.21290 | 73.05680 | 7989 ft | 275 kts | 91° |
| 2026-05-06 19:43 | 19.21287 | 73.06086 | 7991 ft | 272 kts | 91° |
| 2026-05-06 19:44 | 19.21273 | 73.07693 | 7991 ft | 266 kts | 91° |
| 2026-05-06 19:44 | 19.21258 | 73.09652 | 7996 ft | 265 kts | 91° |
| 2026-05-06 19:44 | 19.21242 | 73.11603 | 7997 ft | 265 kts | 91° |
| 2026-05-06 19:44 | 19.21225 | 73.13561 | 7997 ft | 266 kts | 91° |
| 2026-05-06 19:45 | 19.21303 | 73.15502 | 8008 ft | 264 kts | 86° |
| 2026-05-06 19:45 | 19.21307 | 73.17457 | 8003 ft | 266 kts | 92° |
| 2026-05-06 19:45 | 19.21258 | 73.19415 | 8006 ft | 266 kts | 90° |
| 2026-05-06 19:45 | 19.21274 | 73.21372 | 8008 ft | 266 kts | 89° |
| 2026-05-06 19:46 | 19.21310 | 73.23330 | 8013 ft | 266 kts | 89° |
| 2026-05-06 19:46 | 19.21331 | 73.25290 | 8012 ft | 266 kts | 91° |
| 2026-05-06 19:46 | 19.20977 | 73.27185 | 8010 ft | 264 kts | 118° |
| 2026-05-06 19:46 | 19.19857 | 73.28668 | 7996 ft | 253 kts | 146° |
| 2026-05-06 19:47 | 19.18306 | 73.29422 | 7886 ft | 243 kts | 169° |
| 2026-05-06 19:47 | 19.16607 | 73.29355 | 7404 ft | 248 kts | 197° |
| 2026-05-06 19:47 | 19.15100 | 73.28507 | 7005 ft | 248 kts | 223° |
| 2026-05-06 19:47 | 19.14120 | 73.27013 | 6641 ft | 246 kts | 247° |
| 2026-05-06 19:48 | 19.13466 | 73.25346 | 6313 ft | 245 kts | 250° |
| 2026-05-06 19:48 | 19.12885 | 73.23686 | 6011 ft | 243 kts | 251° |
| 2026-05-06 19:48 | 19.12287 | 73.22010 | 5660 ft | 243 kts | 250° |
| 2026-05-06 19:48 | 19.11672 | 73.20340 | 5310 ft | 244 kts | 250° |
| 2026-05-06 19:49 | 19.11054 | 73.18666 | 4992 ft | 244 kts | 251° |
| 2026-05-06 19:49 | 19.10441 | 73.16991 | 4666 ft | 244 kts | 251° |
| 2026-05-06 19:49 | 19.09837 | 73.15344 | 4540 ft | 233 kts | 251° |
| 2026-05-06 19:49 | 19.09288 | 73.13775 | 4240 ft | 227 kts | 257° |
| 2026-05-06 19:50 | 19.09238 | 73.12142 | 4016 ft | 219 kts | 274° |
| 2026-05-06 19:50 | 19.09223 | 73.10630 | 3993 ft | 251 kts | 270° |
| 2026-05-06 19:50 | 19.09171 | 73.08873 | 3996 ft | 249 kts | 270° |
| 2026-05-06 19:50 | 19.09144 | 73.07500 | 3993 ft | 261 kts | 271° |
| 2026-05-06 19:51 | 19.09205 | 73.05420 | 4030 ft | 306 kts | 282° |
| 2026-05-06 19:51 | 19.10165 | 73.03366 | 4063 ft | 305 kts | 313° |
| 2026-05-06 19:51 | 19.11829 | 73.02235 | 4057 ft | 273 kts | 345° |
| 2026-05-06 19:51 | 19.13621 | 73.02163 | 4025 ft | 249 kts | 6° |
| 2026-05-06 19:52 | 19.15331 | 73.02458 | 4011 ft | 240 kts | 10° |
| 2026-05-06 19:52 | 19.16892 | 73.02781 | 3955 ft | 218 kts | 11° |
| 2026-05-06 19:52 | 19.18372 | 73.03094 | 3455 ft | 219 kts | 11° |
| 2026-05-06 19:52 | 19.19868 | 73.03403 | 3348 ft | 215 kts | 11° |
| 2026-05-06 19:53 | 19.21305 | 73.03695 | 3341 ft | 206 kts | 11° |
| 2026-05-06 19:53 | 19.22714 | 73.03979 | 3198 ft | 206 kts | 11° |
| 2026-05-06 19:53 | 19.24118 | 73.04260 | 3044 ft | 205 kts | 11° |
| 2026-05-06 19:53 | 19.25526 | 73.04538 | 2901 ft | 205 kts | 11° |
| 2026-05-06 19:54 | 19.26897 | 73.04808 | 2892 ft | 198 kts | 11° |
| 2026-05-06 19:54 | 19.28227 | 73.05070 | 2893 ft | 190 kts | 11° |
| 2026-05-06 19:54 | 19.29503 | 73.05321 | 2890 ft | 183 kts | 11° |
| 2026-05-06 19:54 | 19.30739 | 73.05564 | 2891 ft | 177 kts | 11° |
| 2026-05-06 19:55 | 19.31913 | 73.05831 | 2855 ft | 169 kts | 19° |
| 2026-05-06 19:55 | 19.32672 | 73.06693 | 2672 ft | 165 kts | 73° |
| 2026-05-06 19:55 | 19.32612 | 73.07977 | 2844 ft | 187 kts | 97° |
| 2026-05-06 19:55 | 19.31913 | 73.09275 | 2895 ft | 221 kts | 137° |
| 2026-05-06 19:56 | 19.30508 | 73.09888 | 2912 ft | 227 kts | 168° |
| 2026-05-06 19:56 | 19.28892 | 73.10096 | 2923 ft | 233 kts | 174° |
| 2026-05-06 19:56 | 19.27305 | 73.09863 | 2903 ft | 232 kts | 198° |
| 2026-05-06 19:56 | 19.25821 | 73.09252 | 2916 ft | 233 kts | 202° |
| 2026-05-06 19:57 | 19.24297 | 73.08597 | 2913 ft | 234 kts | 200° |
| 2026-05-06 19:57 | 19.22762 | 73.08042 | 2916 ft | 232 kts | 197° |
| 2026-05-06 19:57 | 19.21222 | 73.07528 | 2910 ft | 232 kts | 197° |
| 2026-05-06 19:57 | 19.19687 | 73.07001 | 2911 ft | 232 kts | 198° |
| 2026-05-06 19:58 | 19.18143 | 73.06459 | 2909 ft | 233 kts | 198° |
| 2026-05-06 19:58 | 19.16611 | 73.05923 | 2912 ft | 233 kts | 198° |
| 2026-05-06 19:58 | 19.15071 | 73.05387 | 2912 ft | 233 kts | 198° |
| 2026-05-06 19:58 | 19.13575 | 73.04865 | 2918 ft | 233 kts | 198° |
| 2026-05-06 19:59 | 19.12033 | 73.04329 | 2910 ft | 234 kts | 198° |
| 2026-05-06 19:59 | 19.10508 | 73.03742 | 2900 ft | 233 kts | 206° |
| 2026-05-06 19:59 | 19.09409 | 73.02559 | 2888 ft | 229 kts | 241° |
| 2026-05-06 19:59 | 19.09078 | 73.00936 | 2900 ft | 226 kts | 270° |
| 2026-05-06 20:00 | 19.09039 | 72.99269 | 2907 ft | 225 kts | 271° |
| 2026-05-06 20:00 | 19.09015 | 72.97671 | 2894 ft | 211 kts | 272° |
| 2026-05-06 20:00 | 19.09003 | 72.96139 | 2895 ft | 207 kts | 271° |
| 2026-05-06 20:00 | 19.08982 | 72.94625 | 2896 ft | 203 kts | 271° |
| 2026-05-06 20:01 | 19.08968 | 72.93630 | 2898 ft | 201 kts | 271° |
| 2026-05-06 20:01 | 19.08948 | 72.92137 | 2908 ft | 204 kts | 271° |
| 2026-05-06 20:01 | 19.08915 | 72.90620 | 2515 ft | 221 kts | 269° |
| 2026-05-06 20:01 | 19.08862 | 72.88899 | 1110 ft | 246 kts | 270° |